Time;durP1;ratioP1;P1;durP2;ratioP2;P2;SDS_P1;SDS_P2;PMS_P1;PMS_P2;Temp;Humidity;BMP_temperature;BMP_pressure;BME280_temperature;BME280_humidity;BME280_pressure;Samples;Min_cycle;Max_cycle;Signal;HPM_P1;HPM_P2
2023/11/18 01:54:41;;;;;;;2.00;1.42;;;17.60;56.50;;;;;;6193244;23;20213;-84
2023/11/18 01:57:19;;;;;;;2.60;1.35;;;17.60;56.40;;;;;;6097095;23;20157;-83
2023/11/18 02:00:23;;;;;;;1.92;1.25;;;17.60;56.60;;;;;;5990675;23;20184;-83
2023/11/18 02:03:06;;;;;;;3.38;1.30;;;17.60;56.60;;;;;;6048652;23;20155;-83
2023/11/18 02:05:39;;;;;;;1.92;1.30;;;17.60;56.60;;;;;;5974418;24;20161;-83
2023/11/18 02:08:25;;;;;;;1.73;1.38;;;17.60;56.60;;;;;;5952331;24;20156;-84
2023/11/18 02:11:35;;;;;;;1.75;1.30;;;17.60;56.60;;;;;;5928490;24;20164;-84
2023/11/18 02:14:17;;;;;;;2.28;1.25;;;17.60;56.50;;;;;;5896598;24;20193;-84
2023/11/18 02:17:04;;;;;;;1.77;1.20;;;17.60;56.50;;;;;;5920025;24;20721;-84
2023/11/18 02:19:36;;;;;;;1.80;1.15;;;17.60;57.20;;;;;;5891922;24;20178;-84
2023/11/18 02:22:14;;;;;;;2.28;1.50;;;17.60;56.60;;;;;;5892373;24;20143;-84
2023/11/18 02:25:01;;;;;;;2.63;1.45;;;17.60;56.50;;;;;;5897047;24;20146;-84
2023/11/18 02:27:45;;;;;;;2.75;1.38;;;17.60;56.60;;;;;;5851900;24;20157;-84
2023/11/18 02:30:29;;;;;;;4.13;1.58;;;17.60;56.60;;;;;;5890824;24;20165;-84
2023/11/18 02:33:14;;;;;;;2.00;1.35;;;17.60;56.60;;;;;;5853264;24;20142;-83
2023/11/18 02:56:57;;;;;;;;;;;;;;;;;;;;;
2023/11/18 02:59:33;;;;;;;1.67;1.45;;;17.60;56.70;;;;;;6184566;23;20162;-83
2023/11/18 03:02:03;;;;;;;1.27;1.17;;;17.60;56.60;;;;;;6157335;23;20198;-83
2023/11/18 03:04:43;;;;;;;2.45;1.30;;;17.50;56.50;;;;;;6108537;23;20167;-83
2023/11/18 03:07:46;;;;;;;1.92;1.30;;;17.60;56.70;;;;;;6111967;23;20159;-84
2023/11/18 03:10:34;;;;;;;1.75;1.30;;;17.60;56.60;;;;;;6134151;23;20222;-84
2023/11/18 03:13:37;;;;;;;1.88;1.30;;;17.60;56.50;;;;;;6046957;23;20161;-84
2023/11/18 03:16:31;;;;;;;2.88;1.40;;;17.50;56.60;;;;;;6070254;23;20145;-84
2023/11/18 03:31:59;;;;;;;1.05;0.95;;;17.60;56.60;;;;;;6172620;23;20190;-85
2023/11/18 03:34:29;;;;;;;1.95;1.48;;;17.50;56.60;;;;;;6153292;23;20172;-83
2023/11/18 03:40:48;;;;;;;1.60;1.25;;;17.50;56.50;;;;;;6152433;23;20154;-83
2023/11/18 03:43:52;;;;;;;2.20;1.45;;;17.50;56.60;;;;;;6152359;23;20153;-84
2023/11/18 03:49:46;;;;;;;2.22;1.38;;;17.50;56.50;;;;;;6201018;23;20190;-85
2023/11/18 03:52:25;;;;;;;3.08;1.55;;;17.50;56.50;;;;;;6187205;23;20157;-84
2023/11/18 03:55:27;;;;;;;1.95;1.30;;;17.50;56.60;;;;;;6098142;23;20207;-82
2023/11/18 03:58:18;;;;;;;1.90;1.30;;;17.50;56.60;;;;;;5990116;23;20138;-84
2023/11/18 04:37:01;;;;;;;1.88;1.33;;;17.50;56.60;;;;;;6185352;23;20190;-85
2023/11/18 04:47:31;;;;;;;2.08;1.58;;;17.50;56.70;;;;;;6211441;22;20216;-84
2023/11/18 04:50:04;;;;;;;1.92;1.40;;;17.50;56.60;;;;;;6156298;23;20210;-83
2023/11/18 04:52:34;;;;;;;1.48;1.20;;;17.50;56.60;;;;;;6092667;23;20156;-83
2023/11/18 04:55:01;;;;;;;3.20;1.55;;;17.50;56.60;;;;;;6113866;23;20192;-83
2023/11/18 05:16:23;;;;;;;1.50;1.40;;;17.50;56.50;;;;;;6204052;23;20217;-82
2023/11/18 05:18:51;;;;;;;1.70;1.35;;;17.50;56.60;;;;;;6130538;23;20154;-82
2023/11/18 05:21:30;;;;;;;2.42;1.30;;;17.50;56.60;;;;;;6106771;23;20154;-82
2023/11/18 05:23:57;;;;;;;2.33;1.40;;;17.50;56.50;;;;;;6154224;23;20579;-82
2023/11/18 05:26:26;;;;;;;1.88;1.40;;;17.50;56.60;;;;;;6130250;23;20138;-82
2023/11/18 05:28:54;;;;;;;2.58;1.35;;;17.50;56.60;;;;;;6089847;23;20149;-83
2023/11/18 05:31:26;;;;;;;3.03;1.48;;;17.50;56.60;;;;;;6087164;23;20157;-83
2023/11/18 05:33:55;;;;;;;1.75;1.30;;;17.50;56.60;;;;;;6089122;23;20244;-82
2023/11/18 05:36:27;;;;;;;1.65;1.40;;;17.50;56.70;;;;;;6113519;23;20133;-83
2023/11/18 05:38:58;;;;;;;2.10;1.45;;;17.50;56.60;;;;;;6112355;23;20660;-84
2023/11/18 05:51:45;;;;;;;1.58;1.23;;;17.50;56.60;;;;;;6183711;23;20205;-82
2023/11/18 06:21:40;;;;;;;3.40;1.38;;;17.50;56.40;;;;;;6165476;23;20182;-83
2023/11/18 06:24:07;;;;;;;1.33;1.23;;;17.50;56.40;;;;;;6180266;23;20194;-83
2023/11/18 06:26:41;;;;;;;2.08;1.60;;;17.50;56.40;;;;;;6155864;23;20205;-83
2023/11/18 06:29:09;;;;;;;2.25;1.30;;;17.40;56.40;;;;;;6156249;23;20138;-83
2023/11/18 06:31:50;;;;;;;1.77;1.33;;;17.50;56.60;;;;;;6180253;23;20199;-83
2023/11/18 06:34:21;;;;;;;1.30;1.20;;;17.50;56.40;;;;;;6154205;23;20201;-84
2023/11/18 06:39:29;;;;;;;1.40;1.30;;;17.50;56.50;;;;;;6190332;23;20213;-82
2023/11/18 06:42:01;;;;;;;2.47;1.23;;;17.50;56.50;;;;;;6156531;23;20135;-82
2023/11/18 06:44:31;;;;;;;2.22;1.20;;;17.50;56.50;;;;;;6129373;23;20162;-82
2023/11/18 06:47:05;;;;;;;1.70;1.13;;;17.50;56.50;;;;;;6132538;23;20618;-83
2023/11/18 06:49:34;;;;;;;1.70;1.13;;;17.50;56.60;;;;;;6092726;23;20320;-82
2023/11/18 06:52:02;;;;;;;1.92;1.25;;;17.50;56.50;;;;;;6092887;23;20148;-82
2023/11/18 06:54:33;;;;;;;1.38;1.13;;;17.50;56.50;;;;;;6115248;23;20176;-82
2023/11/18 06:57:01;;;;;;;1.67;1.20;;;17.50;56.40;;;;;;6174368;23;20228;-83
2023/11/18 09:20:45;;;;;;;3.30;1.15;;;18.30;54.20;;;;;;6179734;23;20217;-85
2023/11/18 09:23:11;;;;;;;2.53;1.27;;;18.20;54.70;;;;;;6146120;23;20585;-84
2023/11/18 09:25:46;;;;;;;6.18;1.08;;;18.30;54.40;;;;;;6171352;23;20190;-85
2023/11/18 09:28:14;;;;;;;4.85;1.20;;;18.30;54.10;;;;;;6122919;23;20150;-82
2023/11/18 09:30:53;;;;;;;6.53;1.30;;;18.30;54.10;;;;;;6197231;23;20221;-84
2023/11/18 09:33:35;;;;;;;12.93;1.40;;;18.20;54.10;;;;;;6078185;23;20178;-83
2023/11/18 09:57:08;;;;;;;6.22;1.30;;;18.40;55.30;;;;;;6190368;23;20260;-82
2023/11/18 09:59:54;;;;;;;5.40;1.23;;;18.40;55.40;;;;;;6144615;23;20159;-82
2023/11/18 10:02:25;;;;;;;2.03;1.10;;;18.40;55.30;;;;;;6081992;23;20196;-83
2023/11/18 10:05:13;;;;;;;3.13;1.20;;;18.30;54.80;;;;;;6056873;23;20153;-83
2023/11/18 10:08:13;;;;;;;5.05;1.40;;;18.30;55.40;;;;;;6059631;23;20184;-84
2023/11/18 10:11:04;;;;;;;;;;;;;;;;;;;;;
2023/11/18 10:13:48;;;;;;;5.10;1.23;;;18.30;55.70;;;;;;6038495;23;20211;-85
2023/11/18 10:16:18;;;;;;;6.35;1.50;;;18.30;55.70;;;;;;6056464;23;20217;-84
2023/11/18 10:18:48;;;;;;;5.00;1.15;;;18.30;55.90;;;;;;6032759;23;20221;-82
2023/11/18 10:21:18;;;;;;;4.22;1.40;;;18.20;55.50;;;;;;6037032;23;20153;-83
2023/11/18 10:24:49;;;;;;;10.45;1.65;;;18.40;55.30;;;;;;6038167;23;20221;-84
2023/11/18 10:26:57;;;;;;;7.30;1.67;;;18.30;55.90;;;;;;6057265;23;20157;-84
2023/11/18 10:29:27;;;;;;;7.80;1.85;;;18.30;55.60;;;;;;6033946;23;20153;-86
2023/11/18 10:32:09;;;;;;;7.28;1.65;;;18.40;55.80;;;;;;6035616;23;20177;-85
2023/11/18 10:35:01;;;;;;;8.40;1.48;;;18.30;55.50;;;;;;6029699;23;20204;-86
2023/11/18 10:37:43;;;;;;;8.65;1.80;;;18.40;55.00;;;;;;6022545;23;20213;-84
2023/11/18 10:40:14;;;;;;;6.07;1.40;;;18.40;55.30;;;;;;6016139;23;20221;-84
2023/11/18 10:42:48;;;;;;;6.68;1.50;;;18.40;53.30;;;;;;5985718;23;20636;-82
2023/11/18 10:45:27;;;;;;;4.50;1.30;;;18.40;53.50;;;;;;6025271;23;20196;-83
2023/11/18 10:48:09;;;;;;;6.63;1.38;;;18.30;53.40;;;;;;6009561;23;20150;-86
2023/11/18 10:50:38;;;;;;;6.55;1.25;;;18.40;52.60;;;;;;6006959;23;20143;-85
2023/11/18 10:53:21;;;;;;;;;;;;;;;;;;;;;
2023/11/18 10:55:50;;;;;;;6.75;1.35;;;18.40;52.90;;;;;;6011939;23;20194;-84
2023/11/18 10:58:25;;;;;;;8.95;1.40;;;18.30;52.50;;;;;;6006730;23;20589;-84
2023/11/18 11:00:55;;;;;;;7.80;1.30;;;18.30;52.40;;;;;;6002589;23;20214;-86
2023/11/18 11:03:38;;;;;;;4.65;1.13;;;18.30;52.10;;;;;;6032314;23;20173;-86
2023/11/18 11:06:37;;;;;;;7.07;1.48;;;18.30;52.80;;;;;;6054281;23;20157;-85
2023/11/18 11:09:14;;;;;;;7.53;1.50;;;18.30;52.50;;;;;;6012465;23;20154;-83
2023/11/18 11:11:49;;;;;;;5.07;1.42;;;18.30;52.50;;;;;;6077392;23;20153;-84
2023/11/18 11:14:20;;;;;;;5.53;1.40;;;18.20;52.60;;;;;;6027768;23;20188;-85
2023/11/18 11:16:51;;;;;;;7.97;1.45;;;18.30;52.90;;;;;;6057622;23;20179;-81
2023/11/18 11:19:44;;;;;;;9.27;1.67;;;18.20;53.40;;;;;;6080926;23;20611;-86
2023/11/18 11:22:15;;;;;;;8.90;1.73;;;18.20;54.70;;;;;;6083582;23;20171;-85
2023/11/18 11:25:31;;;;;;;;;;;;;;;;;;;;;
2023/11/18 11:28:15;;;;;;;7.10;1.60;;;18.20;53.50;;;;;;6128466;23;20519;-86
2023/11/18 11:31:38;;;;;;;11.30;2.13;;;18.20;54.60;;;;;;6065913;23;20155;-88
2023/11/18 11:34:42;;;;;;;10.80;1.85;;;18.20;53.20;;;;;;5964286;24;20228;-86
2023/11/18 11:37:15;;;;;;;5.22;1.17;;;18.10;53.80;;;;;;5891648;24;20157;-86
2023/11/18 11:39:49;;;;;;;8.00;1.73;;;18.10;51.40;;;;;;5844764;24;20180;-86
2023/11/18 11:42:27;;;;;;;7.35;1.45;;;18.10;52.80;;;;;;5883944;24;20225;-84
2023/11/18 11:45:52;;;;;;;;;;;;;;;;;;;;;
2023/11/18 11:48:37;;;;;;;;;;;;;;;;;;;;;
2023/11/18 11:51:37;;;;;;;6.20;1.50;;;18.10;52.90;;;;;;5797819;24;20179;-87
2023/11/18 11:54:15;;;;;;;5.68;1.50;;;18.20;53.40;;;;;;5790889;24;20239;-86
2023/11/18 11:57:48;;;;;;;;;;;;;;;;;;;;;
2023/11/18 12:00:42;;;;;;;6.40;1.33;;;18.20;53.50;;;;;;5802511;24;20188;-84
2023/11/18 12:06:44;;;;;;;3.35;1.40;;;18.20;53.40;;;;;;5803382;24;20539;-87
2023/11/18 12:09:19;;;;;;;3.95;0.93;;;18.30;52.10;;;;;;5778633;24;20163;-87
2023/11/18 12:11:49;;;;;;;9.93;1.50;;;18.30;51.10;;;;;;5825979;24;20687;-86
2023/11/18 12:18:47;;;;;;;;;;;;;;;;;;;;;
2023/11/18 12:24:22;;;;;;;6.25;1.88;;;18.20;53.20;;;;;;6207147;22;20189;-87
2023/11/18 12:26:49;;;;;;;8.10;1.63;;;18.10;52.90;;;;;;6142671;23;20151;-86
2023/11/18 12:29:32;;;;;;;8.95;1.20;;;18.20;52.60;;;;;;6050328;23;20161;-82
2023/11/18 12:36:34;;;;;;;6.55;1.95;;;18.10;53.00;;;;;;6078685;23;20176;-86
2023/11/18 12:39:22;;;;;;;6.63;1.65;;;18.10;52.90;;;;;;6007683;23;20157;-85
2023/11/18 12:42:06;;;;;;;5.93;1.23;;;18.10;52.60;;;;;;5949735;24;20176;-84
2023/11/18 12:45:20;;;;;;;5.32;1.30;;;18.10;52.40;;;;;;5896892;24;20207;-86
2023/11/18 12:47:46;;;;;;;8.63;1.50;;;18.10;52.10;;;;;;5934168;24;20157;-85
2023/11/18 12:51:10;;;;;;;4.97;1.25;;;18.10;52.20;;;;;;5913141;24;20157;-86
2023/11/18 12:54:02;;;;;;;9.95;1.38;;;18.20;52.80;;;;;;5887122;24;20269;-87
2023/11/18 12:56:49;;;;;;;;;;;;;;;;;;;;;
2023/11/18 13:05:59;;;;;;;5.00;1.40;;;18.30;52.80;;;;;;5824154;24;20177;-83
2023/11/18 13:08:27;;;;;;;6.00;1.45;;;18.30;52.90;;;;;;5903570;24;20162;-83
2023/11/18 13:11:19;;;;;;;5.95;1.52;;;18.30;52.80;;;;;;5961907;24;20160;-83
2023/11/18 13:13:47;;;;;;;6.03;1.30;;;18.30;52.70;;;;;;5978989;24;20187;-83
2023/11/18 13:16:22;;;;;;;3.08;1.20;;;18.30;53.00;;;;;;5943862;24;20156;-85
2023/11/18 13:19:32;;;;;;;4.30;1.38;;;18.30;53.20;;;;;;5958093;24;20167;-85
2023/11/18 13:22:07;;;;;;;1.73;1.27;;;18.20;53.40;;;;;;5990561;23;20158;-84
2023/11/18 13:24:45;;;;;;;1.90;1.10;;;18.30;53.20;;;;;;5979455;24;20222;-85
2023/11/18 13:27:35;;;;;;;4.00;1.20;;;18.30;53.10;;;;;;5985500;23;20168;-83
2023/11/18 13:30:13;;;;;;;3.97;1.30;;;18.40;53.10;;;;;;6121360;23;20167;-85
2023/11/18 13:33:29;;;;;;;9.45;1.45;;;18.40;53.70;;;;;;6104308;23;20143;-84
2023/11/18 13:36:25;;;;;;;5.47;1.40;;;18.40;53.50;;;;;;6061274;23;20172;-85
2023/11/18 13:39:07;;;;;;;3.05;1.15;;;18.30;53.60;;;;;;6118172;23;20203;-85
2023/11/18 13:41:53;;;;;;;3.55;1.10;;;18.30;53.70;;;;;;6171199;23;20206;-84
2023/11/18 13:44:34;;;;;;;2.60;1.20;;;18.30;53.70;;;;;;6138794;23;20156;-85
2023/11/18 13:47:03;;;;;;;3.08;1.58;;;18.30;53.50;;;;;;6087941;23;20311;-83
2023/11/18 13:49:39;;;;;;;4.90;1.42;;;18.40;53.50;;;;;;6068554;23;20157;-83
2023/11/18 13:52:10;;;;;;;4.07;1.42;;;18.40;53.30;;;;;;6179195;23;20205;-82
2023/11/18 13:55:27;;;;;;;4.47;1.13;;;18.40;53.90;;;;;;6145435;23;20321;-81
2023/11/18 13:58:04;;;;;;;3.15;1.60;;;18.40;53.60;;;;;;6144801;23;20166;-83
2023/11/18 14:00:32;;;;;;;7.13;1.10;;;18.40;53.50;;;;;;6078439;23;20151;-83
2023/11/18 14:02:59;;;;;;;1.88;0.95;;;18.40;53.60;;;;;;6144208;23;20202;-85
2023/11/18 14:05:32;;;;;;;4.78;1.20;;;18.40;53.40;;;;;;6095541;23;20175;-84
2023/11/18 14:08:29;;;;;;;4.82;1.40;;;18.40;53.40;;;;;;6068965;23;20154;-84
2023/11/18 14:10:55;;;;;;;2.83;1.02;;;18.40;53.40;;;;;;6116629;23;20151;-83
2023/11/18 14:13:22;;;;;;;3.67;1.20;;;18.30;54.50;;;;;;6167963;23;20140;-83
2023/11/18 14:15:55;;;;;;;1.65;1.13;;;18.40;53.60;;;;;;6116781;23;20486;-84
2023/11/18 14:18:21;;;;;;;2.00;1.10;;;18.40;51.70;;;;;;6083607;23;20153;-83
2023/11/18 14:20:47;;;;;;;2.25;0.95;;;18.40;51.70;;;;;;6109151;23;20164;-84
2023/11/18 14:23:14;;;;;;;2.03;0.93;;;18.40;51.70;;;;;;6110240;23;20148;-84
2023/11/18 14:25:42;;;;;;;2.08;1.10;;;18.30;51.90;;;;;;6125469;23;20207;-85
2023/11/18 14:28:39;;;;;;;2.17;1.13;;;18.30;52.30;;;;;;6113043;23;20196;-85
2023/11/18 14:31:22;;;;;;;2.42;1.20;;;18.30;52.60;;;;;;6113204;23;20152;-83
2023/11/18 14:33:54;;;;;;;1.38;0.88;;;18.30;52.60;;;;;;6027137;23;20182;-85
2023/11/18 14:36:21;;;;;;;2.60;1.17;;;18.30;51.90;;;;;;6027542;23;20173;-85
2023/11/18 14:38:47;;;;;;;2.25;1.30;;;18.30;52.30;;;;;;6051357;23;20536;-83
2023/11/18 14:41:17;;;;;;;2.72;1.00;;;18.30;51.90;;;;;;6018739;23;20272;-84
2023/11/18 14:43:44;;;;;;;1.55;0.90;;;18.40;52.20;;;;;;5992697;24;20163;-83
2023/11/18 14:49:03;;;;;;;1.75;0.85;;;18.30;52.60;;;;;;6192661;23;20209;-85
2023/11/18 14:51:29;;;;;;;2.55;1.30;;;18.30;52.30;;;;;;6143985;23;20469;-84
2023/11/18 14:53:54;;;;;;;2.33;1.10;;;18.30;52.20;;;;;;6143181;23;20178;-83
2023/11/18 14:56:20;;;;;;;2.75;1.17;;;18.30;52.60;;;;;;6169170;23;20210;-84
2023/11/18 14:58:49;;;;;;;2.35;0.90;;;18.40;52.50;;;;;;6145558;23;20143;-83
2023/11/18 15:01:19;;;;;;;2.08;1.10;;;18.40;52.00;;;;;;6169298;23;20193;-85
2023/11/18 15:03:46;;;;;;;2.20;1.00;;;18.40;52.30;;;;;;6148412;23;20146;-85
2023/11/18 15:06:13;;;;;;;1.83;1.02;;;18.30;52.50;;;;;;6148126;23;20586;-85
2023/11/18 15:08:40;;;;;;;2.88;1.30;;;18.40;53.20;;;;;;6147733;23;20150;-85
2023/11/18 15:11:07;;;;;;;1.23;0.88;;;18.40;53.20;;;;;;6146387;23;20443;-84
2023/11/18 15:13:33;;;;;;;3.50;1.00;;;18.40;52.70;;;;;;6146599;23;20179;-85
2023/11/18 15:16:04;;;;;;;1.60;1.00;;;18.40;52.90;;;;;;6145908;23;20234;-84
2023/11/18 15:18:31;;;;;;;3.95;1.10;;;18.40;52.20;;;;;;6169292;23;20185;-84
2023/11/18 15:20:59;;;;;;;1.50;1.08;;;18.30;52.60;;;;;;6109764;23;20256;-86
2023/11/18 15:23:25;;;;;;;2.65;1.17;;;18.40;52.70;;;;;;6085204;23;20162;-85
2023/11/18 15:25:53;;;;;;;3.20;1.10;;;18.40;52.70;;;;;;6060194;23;20163;-84
2023/11/18 15:28:28;;;;;;;3.60;1.02;;;18.40;52.20;;;;;;6061428;23;20519;-85
2023/11/18 15:31:01;;;;;;;2.03;0.90;;;18.40;52.70;;;;;;6110288;23;20151;-86
2023/11/18 15:33:26;;;;;;;3.22;0.90;;;18.40;52.40;;;;;;6060833;23;20180;-85
2023/11/18 15:35:54;;;;;;;2.00;1.02;;;18.30;52.30;;;;;;6058947;23;20166;-83
2023/11/18 15:38:23;;;;;;;2.15;1.10;;;18.40;52.40;;;;;;6108974;23;20139;-83
2023/11/18 15:40:51;;;;;;;2.72;1.38;;;18.30;52.70;;;;;;6062467;23;20180;-83
2023/11/18 15:43:23;;;;;;;2.22;1.20;;;18.40;52.60;;;;;;6063402;23;20172;-85
2023/11/18 15:45:50;;;;;;;3.25;1.30;;;18.40;52.40;;;;;;6063390;23;20631;-84
2023/11/18 15:48:18;;;;;;;1.33;1.13;;;18.40;53.00;;;;;;6062380;23;20201;-84
2023/11/18 15:50:49;;;;;;;1.65;1.10;;;18.40;52.70;;;;;;6086544;23;20159;-85
2023/11/18 15:53:15;;;;;;;1.10;0.80;;;18.40;52.80;;;;;;6062346;23;20160;-84
2023/11/18 15:55:43;;;;;;;1.10;0.90;;;18.40;52.20;;;;;;6059968;23;20631;-85
2023/11/18 15:58:26;;;;;;;3.90;0.88;;;18.40;52.60;;;;;;6085233;23;20144;-84
2023/11/18 16:00:56;;;;;;;2.33;0.90;;;18.40;52.90;;;;;;6062637;23;20464;-84
2023/11/18 16:03:21;;;;;;;2.50;0.95;;;18.40;52.80;;;;;;6083611;23;20156;-84
2023/11/18 16:05:47;;;;;;;2.22;1.02;;;18.40;52.10;;;;;;6138306;23;20219;-84
2023/11/18 16:08:15;;;;;;;4.13;1.20;;;18.40;52.30;;;;;;6142687;23;20242;-84
2023/11/18 16:10:43;;;;;;;4.55;1.35;;;18.30;52.10;;;;;;6166531;23;20818;-84
2023/11/18 16:13:13;;;;;;;2.08;1.10;;;18.40;52.20;;;;;;6145484;23;20159;-83
2023/11/18 16:15:43;;;;;;;2.20;0.93;;;18.30;52.10;;;;;;6118716;23;20186;-83
2023/11/18 16:18:09;;;;;;;3.35;0.95;;;18.30;52.10;;;;;;6118393;23;20154;-85
2023/11/18 16:20:37;;;;;;;2.30;0.90;;;18.40;52.10;;;;;;6144993;23;20609;-86
2023/11/18 16:23:02;;;;;;;2.90;0.90;;;18.40;52.10;;;;;;6144887;23;20162;-84
2023/11/18 16:25:34;;;;;;;1.85;0.90;;;18.40;52.30;;;;;;6143615;23;20150;-85
2023/11/18 16:28:04;;;;;;;1.38;0.98;;;18.40;52.10;;;;;;6139131;23;20150;-85
2023/11/18 16:30:32;;;;;;;1.48;1.10;;;18.40;52.10;;;;;;6140371;23;20154;-85
2023/11/18 16:33:00;;;;;;;1.38;0.90;;;18.40;51.90;;;;;;6169032;23;20131;-84
2023/11/18 16:35:26;;;;;;;2.75;0.90;;;18.40;52.40;;;;;;6140622;23;20684;-85
2023/11/18 16:37:52;;;;;;;1.75;0.98;;;18.40;52.40;;;;;;6164253;23;20135;-86
2023/11/18 16:40:20;;;;;;;4.18;1.30;;;18.40;52.10;;;;;;6138168;23;20150;-85
2023/11/18 16:42:49;;;;;;;1.50;1.25;;;18.40;52.60;;;;;;6164440;23;20131;-83
2023/11/18 16:45:15;;;;;;;3.05;1.05;;;18.40;51.80;;;;;;6138876;23;20147;-83
2023/11/18 16:47:41;;;;;;;1.20;0.90;;;18.40;51.90;;;;;;6138327;23;20257;-84
2023/11/18 16:50:10;;;;;;;1.13;1.00;;;18.40;51.60;;;;;;6139179;23;20233;-83
2023/11/18 16:52:40;;;;;;;1.10;0.93;;;18.40;52.40;;;;;;6138013;23;20147;-84
2023/11/18 16:55:08;;;;;;;2.03;1.00;;;18.40;51.80;;;;;;6137756;23;20186;-84
2023/11/18 16:57:35;;;;;;;2.35;0.85;;;18.40;52.10;;;;;;6137759;23;20459;-83
2023/11/18 17:00:08;;;;;;;1.40;1.10;;;18.30;51.70;;;;;;6162437;23;20206;-84
2023/11/18 17:02:45;;;;;;;1.15;0.88;;;18.40;51.60;;;;;;6166690;23;20127;-84
2023/11/18 17:05:11;;;;;;;2.90;0.88;;;18.40;52.40;;;;;;6132369;23;20179;-83
2023/11/18 17:07:42;;;;;;;2.97;0.90;;;18.40;51.90;;;;;;6108300;23;20159;-83
2023/11/18 17:10:13;;;;;;;2.92;1.00;;;18.40;51.80;;;;;;6083498;23;20152;-83
2023/11/18 17:12:43;;;;;;;1.42;1.10;;;18.40;52.10;;;;;;6083528;23;20711;-82
2023/11/18 17:15:13;;;;;;;1.13;0.98;;;18.40;51.60;;;;;;6107959;23;20187;-83
2023/11/18 17:17:40;;;;;;;1.60;0.80;;;18.30;51.70;;;;;;6084793;23;20144;-82
2023/11/18 17:20:09;;;;;;;1.42;0.90;;;18.40;51.90;;;;;;6083363;23;20191;-82
2023/11/18 17:22:41;;;;;;;1.45;0.70;;;18.30;51.70;;;;;;6107868;23;20235;-83
2023/11/18 17:25:17;;;;;;;1.63;0.98;;;18.30;52.10;;;;;;6080158;23;20156;-82
2023/11/18 17:27:46;;;;;;;2.00;0.90;;;18.30;51.80;;;;;;6185804;23;20202;-83
2023/11/18 17:30:17;;;;;;;1.42;0.88;;;18.30;52.10;;;;;;6117550;23;20178;-83
2023/11/18 17:32:43;;;;;;;0.95;0.90;;;18.30;51.50;;;;;;6161353;23;20182;-82
2023/11/18 17:35:14;;;;;;;1.20;0.90;;;18.30;51.90;;;;;;6111988;23;20218;-82
2023/11/18 17:37:40;;;;;;;0.63;0.60;;;18.30;51.30;;;;;;6112853;23;20151;-82
2023/11/18 17:40:10;;;;;;;0.90;0.82;;;18.30;51.70;;;;;;6112384;23;20206;-83
2023/11/18 17:42:43;;;;;;;0.85;0.68;;;18.30;51.80;;;;;;6138265;23;20151;-83
2023/11/18 17:45:17;;;;;;;0.85;0.80;;;18.30;51.70;;;;;;6089362;23;20159;-83
2023/11/18 17:47:44;;;;;;;0.80;0.70;;;18.30;51.80;;;;;;6089355;23;20155;-86
2023/11/18 17:50:13;;;;;;;1.80;1.00;;;18.30;51.40;;;;;;6112450;23;20151;-83
2023/11/18 17:52:43;;;;;;;1.13;1.00;;;18.30;51.80;;;;;;6130055;23;20206;-83
2023/11/18 17:55:09;;;;;;;1.15;0.77;;;18.30;51.20;;;;;;6167118;23;20174;-82
2023/11/18 17:57:37;;;;;;;1.05;0.70;;;18.30;51.40;;;;;;6165842;23;20139;-82
2023/11/18 18:00:18;;;;;;;0.93;0.70;;;18.30;52.10;;;;;;6142703;23;20146;-83
2023/11/18 18:02:52;;;;;;;0.82;0.70;;;18.30;51.90;;;;;;6098585;23;20173;-84
2023/11/18 18:05:20;;;;;;;1.33;0.98;;;18.30;51.10;;;;;;6168751;23;20574;-83
2023/11/18 18:07:57;;;;;;;0.90;0.80;;;18.30;51.70;;;;;;6145349;23;20162;-83
2023/11/18 18:10:36;;;;;;;1.73;0.70;;;18.30;51.80;;;;;;6122669;23;20150;-83
2023/11/18 18:13:03;;;;;;;0.95;0.77;;;18.20;51.30;;;;;;6170003;23;20131;-84
2023/11/18 18:15:30;;;;;;;0.70;0.70;;;18.20;51.70;;;;;;6168989;23;20182;-82
2023/11/18 18:18:01;;;;;;;0.77;0.73;;;18.30;51.50;;;;;;6167887;23;20159;-84
2023/11/18 18:20:29;;;;;;;1.40;0.95;;;18.30;50.70;;;;;;6077004;23;20717;-83
2023/11/18 18:23:04;;;;;;;1.10;0.80;;;18.20;50.90;;;;;;6016847;23;20215;-84
2023/11/18 18:25:30;;;;;;;1.35;0.70;;;18.30;51.00;;;;;;5949478;23;20173;-83
2023/11/18 18:27:55;;;;;;;1.20;1.10;;;18.30;51.70;;;;;;5968652;23;20254;-83
2023/11/18 18:30:22;;;;;;;1.63;1.05;;;18.30;51.50;;;;;;6016970;23;20528;-84
2023/11/18 18:32:48;;;;;;;1.70;0.73;;;18.30;51.60;;;;;;5961561;24;20232;-82
2023/11/18 18:35:26;;;;;;;;;;;;;;;;;;;;;
2023/11/18 18:40:22;;;;;;;1.00;0.90;;;18.20;51.00;;;;;;6169876;23;20213;-82
2023/11/18 18:42:49;;;;;;;1.52;0.80;;;18.20;51.10;;;;;;6122043;23;20181;-83
2023/11/18 18:45:18;;;;;;;0.82;0.82;;;18.20;51.60;;;;;;6118591;23;20154;-83
2023/11/18 18:47:46;;;;;;;1.00;0.90;;;18.20;51.30;;;;;;6118446;23;20161;-83
2023/11/18 18:50:13;;;;;;;0.68;0.68;;;18.20;51.20;;;;;;6082999;23;20152;-83
2023/11/18 18:52:44;;;;;;;0.90;0.80;;;18.20;51.50;;;;;;6083351;23;20148;-84
2023/11/18 18:55:12;;;;;;;0.80;0.77;;;18.20;51.90;;;;;;6059462;23;20862;-86
2023/11/18 18:57:39;;;;;;;0.60;0.60;;;18.20;51.40;;;;;;6058309;23;20223;-83
2023/11/18 19:00:07;;;;;;;0.70;0.70;;;18.20;51.50;;;;;;6058794;23;20684;-82
2023/11/18 19:02:34;;;;;;;1.63;0.90;;;18.20;51.30;;;;;;6083198;23;20260;-84
2023/11/18 19:05:08;;;;;;;1.00;0.90;;;18.20;51.00;;;;;;6025596;23;20157;-83
2023/11/18 19:07:38;;;;;;;0.70;0.70;;;18.20;51.20;;;;;;6049905;23;20148;-82
2023/11/18 19:15:25;;;;;;;1.15;1.00;;;18.20;50.80;;;;;;6165490;23;20563;-82
2023/11/18 19:17:53;;;;;;;0.80;0.80;;;18.20;51.20;;;;;;6074211;23;20153;-84
2023/11/18 19:20:25;;;;;;;1.52;1.08;;;18.20;50.70;;;;;;6075314;23;20262;-83
2023/11/18 19:22:56;;;;;;;1.00;0.90;;;18.20;50.90;;;;;;6027636;23;20161;-83
2023/11/18 19:25:24;;;;;;;0.98;0.90;;;18.20;50.30;;;;;;5991001;23;20158;-84
2023/11/18 19:27:51;;;;;;;0.82;0.82;;;18.10;50.90;;;;;;5964832;24;20160;-84
2023/11/18 19:30:26;;;;;;;0.80;0.80;;;18.20;50.40;;;;;;5942510;24;20523;-85
2023/11/18 19:32:54;;;;;;;0.95;0.90;;;18.20;51.10;;;;;;5932999;24;20156;-83
2023/11/18 19:35:23;;;;;;;0.80;0.80;;;18.20;50.60;;;;;;6002326;23;20209;-83
2023/11/18 19:37:53;;;;;;;0.80;0.77;;;18.20;50.80;;;;;;6167879;23;20134;-82
2023/11/18 19:40:19;;;;;;;1.88;0.82;;;18.20;50.20;;;;;;6143663;23;20202;-83
2023/11/18 19:42:50;;;;;;;1.00;0.70;;;18.20;50.60;;;;;;6195069;23;20195;-83
2023/11/18 19:45:16;;;;;;;0.80;0.80;;;18.20;51.50;;;;;;6119715;23;20210;-84
2023/11/18 19:47:44;;;;;;;0.73;0.70;;;18.20;51.40;;;;;;6143507;23;20194;-82
2023/11/18 19:50:12;;;;;;;0.55;0.52;;;18.20;51.00;;;;;;6134338;23;20375;-83
2023/11/18 19:52:44;;;;;;;1.05;0.93;;;18.20;50.70;;;;;;6085535;23;20156;-84
2023/11/18 19:55:13;;;;;;;1.33;0.85;;;18.20;51.30;;;;;;6085464;23;20192;-84
2023/11/18 19:57:40;;;;;;;1.13;0.90;;;18.10;51.10;;;;;;6086306;23;20152;-83
2023/11/18 20:00:12;;;;;;;0.70;0.70;;;18.10;50.60;;;;;;6084356;23;20163;-84
2023/11/18 20:02:49;;;;;;;0.98;0.77;;;18.20;50.70;;;;;;6085758;23;20156;-83
2023/11/18 20:05:15;;;;;;;2.30;0.85;;;18.10;50.30;;;;;;6078100;23;20168;-84
2023/11/18 20:07:48;;;;;;;1.05;0.82;;;18.20;50.50;;;;;;6050961;23;20161;-83
2023/11/18 20:12:58;;;;;;;0.90;0.88;;;18.20;51.30;;;;;;6186591;23;20208;-83
2023/11/18 20:15:32;;;;;;;0.90;0.80;;;18.10;50.70;;;;;;6141264;23;20224;-83
2023/11/18 20:20:28;;;;;;;0.95;0.70;;;18.10;51.20;;;;;;6169518;23;20210;-83
2023/11/18 20:22:54;;;;;;;0.82;0.80;;;18.10;50.50;;;;;;6170256;23;20138;-82
2023/11/18 20:25:20;;;;;;;0.88;0.80;;;18.10;50.40;;;;;;6169599;23;20219;-82
2023/11/18 20:28:03;;;;;;;0.70;0.70;;;18.10;50.30;;;;;;6170138;23;20135;-83
2023/11/18 20:30:29;;;;;;;0.80;0.80;;;18.10;50.60;;;;;;6171423;23;20139;-83
2023/11/18 20:33:03;;;;;;;0.80;0.80;;;18.10;51.30;;;;;;6147250;23;20141;-83
2023/11/18 20:35:36;;;;;;;1.15;0.63;;;18.10;50.70;;;;;;6121181;23;20211;-82
2023/11/18 20:38:07;;;;;;;1.35;0.70;;;18.20;51.10;;;;;;6170060;23;20150;-84
2023/11/18 20:40:34;;;;;;;0.60;0.60;;;18.10;50.80;;;;;;6085534;23;20152;-83
2023/11/18 20:43:03;;;;;;;0.70;0.70;;;18.10;50.60;;;;;;6110077;23;20148;-82
2023/11/18 20:45:33;;;;;;;1.10;0.60;;;18.10;50.50;;;;;;6047964;23;20504;-83
2023/11/18 21:28:17;;;;;;;0.60;0.60;;;17.90;52.60;;;;;;6179170;23;20820;-82
2023/11/18 21:30:43;;;;;;;0.73;0.70;;;17.80;52.50;;;;;;6164967;23;20139;-82
2023/11/18 21:33:11;;;;;;;0.60;0.60;;;17.80;52.40;;;;;;6166310;23;20139;-83
2023/11/18 21:35:40;;;;;;;0.70;0.70;;;17.80;52.50;;;;;;6104287;23;20192;-84
2023/11/18 21:38:06;;;;;;;0.75;0.70;;;17.80;52.50;;;;;;6082800;23;20152;-82
2023/11/18 21:40:35;;;;;;;1.45;0.80;;;17.70;52.60;;;;;;6073936;23;20218;-83
2023/11/18 21:43:06;;;;;;;1.00;0.80;;;17.80;52.50;;;;;;6050328;23;20583;-84
2023/11/18 21:45:33;;;;;;;0.60;0.60;;;17.80;52.60;;;;;;6025069;23;20157;-82
2023/11/18 21:48:04;;;;;;;0.60;0.60;;;17.80;52.50;;;;;;6050471;23;20157;-82
2023/11/18 21:50:33;;;;;;;0.80;0.60;;;17.80;52.80;;;;;;6048086;23;20157;-82
2023/11/18 21:53:04;;;;;;;0.60;0.60;;;17.80;52.70;;;;;;6050834;23;20164;-83
2023/11/18 21:57:55;;;;;;;0.68;0.68;;;17.70;52.90;;;;;;6199092;22;20260;-83